sensor_id;sensor_type;location;lat;lon;timestamp;P1;durP1;ratioP1;P2;durP2;ratioP2
58954;SDS011;45815;52.334;5.024;2024-01-07T00:01:28;8.77;;;5.15;;
58954;SDS011;45815;52.334;5.024;2024-01-07T00:03:53;9.77;;;6.07;;
58954;SDS011;45815;52.334;5.024;2024-01-07T00:06:18;7.53;;;5.07;;
58954;SDS011;45815;52.334;5.024;2024-01-07T00:08:44;7.93;;;5.57;;
58954;SDS011;45815;52.334;5.024;2024-01-07T00:11:09;9.40;;;5.68;;
58954;SDS011;45815;52.334;5.024;2024-01-07T00:13:35;9.27;;;5.60;;
58954;SDS011;45815;52.334;5.024;2024-01-07T00:16:01;8.63;;;5.45;;
58954;SDS011;45815;52.334;5.024;2024-01-07T00:18:26;9.65;;;5.80;;
58954;SDS011;45815;52.334;5.024;2024-01-07T00:20:52;9.00;;;5.82;;
58954;SDS011;45815;52.334;5.024;2024-01-07T00:23:18;8.73;;;5.25;;
58954;SDS011;45815;52.334;5.024;2024-01-07T00:25:45;10.48;;;5.75;;
58954;SDS011;45815;52.334;5.024;2024-01-07T00:28:11;8.65;;;5.80;;
58954;SDS011;45815;52.334;5.024;2024-01-07T00:30:37;10.65;;;6.55;;
58954;SDS011;45815;52.334;5.024;2024-01-07T00:33:02;8.95;;;5.75;;
58954;SDS011;45815;52.334;5.024;2024-01-07T00:35:27;10.40;;;6.95;;
58954;SDS011;45815;52.334;5.024;2024-01-07T00:37:53;10.10;;;6.25;;
58954;SDS011;45815;52.334;5.024;2024-01-07T00:40:21;11.13;;;6.97;;
58954;SDS011;45815;52.334;5.024;2024-01-07T00:42:47;11.98;;;7.60;;
58954;SDS011;45815;52.334;5.024;2024-01-07T00:45:12;11.30;;;7.25;;
58954;SDS011;45815;52.334;5.024;2024-01-07T00:47:38;10.82;;;6.63;;
58954;SDS011;45815;52.334;5.024;2024-01-07T00:50:03;8.75;;;5.72;;
58954;SDS011;45815;52.334;5.024;2024-01-07T00:52:29;11.68;;;6.53;;
58954;SDS011;45815;52.334;5.024;2024-01-07T00:54:55;10.60;;;6.50;;
58954;SDS011;45815;52.334;5.024;2024-01-07T00:57:20;10.13;;;5.65;;
58954;SDS011;45815;52.334;5.024;2024-01-07T00:59:45;9.68;;;6.15;;
58954;SDS011;45815;52.334;5.024;2024-01-07T01:02:11;10.38;;;6.05;;
58954;SDS011;45815;52.334;5.024;2024-01-07T01:04:38;8.90;;;5.35;;
58954;SDS011;45815;52.334;5.024;2024-01-07T01:07:05;9.63;;;5.68;;
58954;SDS011;45815;52.334;5.024;2024-01-07T01:09:30;11.27;;;6.05;;
58954;SDS011;45815;52.334;5.024;2024-01-07T01:11:55;9.93;;;6.07;;
58954;SDS011;45815;52.334;5.024;2024-01-07T01:14:21;10.50;;;6.70;;
58954;SDS011;45815;52.334;5.024;2024-01-07T01:16:46;9.05;;;5.95;;
58954;SDS011;45815;52.334;5.024;2024-01-07T01:19:12;9.52;;;5.70;;
58954;SDS011;45815;52.334;5.024;2024-01-07T01:21:37;9.32;;;5.88;;
58954;SDS011;45815;52.334;5.024;2024-01-07T01:24:03;9.02;;;6.10;;
58954;SDS011;45815;52.334;5.024;2024-01-07T01:26:29;10.77;;;6.45;;
58954;SDS011;45815;52.334;5.024;2024-01-07T01:28:54;9.05;;;5.88;;
58954;SDS011;45815;52.334;5.024;2024-01-07T01:31:20;9.68;;;6.28;;
58954;SDS011;45815;52.334;5.024;2024-01-07T01:33:45;11.13;;;6.13;;
58954;SDS011;45815;52.334;5.024;2024-01-07T01:36:11;9.55;;;6.00;;
58954;SDS011;45815;52.334;5.024;2024-01-07T01:38:36;10.40;;;6.45;;
58954;SDS011;45815;52.334;5.024;2024-01-07T01:41:02;10.13;;;6.18;;
58954;SDS011;45815;52.334;5.024;2024-01-07T01:43:28;10.80;;;6.35;;
58954;SDS011;45815;52.334;5.024;2024-01-07T01:45:54;11.55;;;7.25;;
58954;SDS011;45815;52.334;5.024;2024-01-07T01:48:20;11.40;;;6.70;;
58954;SDS011;45815;52.334;5.024;2024-01-07T01:50:47;10.95;;;6.07;;
58954;SDS011;45815;52.334;5.024;2024-01-07T01:53:13;11.18;;;6.75;;
58954;SDS011;45815;52.334;5.024;2024-01-07T01:55:40;11.95;;;7.03;;
58954;SDS011;45815;52.334;5.024;2024-01-07T01:58:08;10.70;;;6.47;;
58954;SDS011;45815;52.334;5.024;2024-01-07T02:00:34;11.52;;;6.45;;
58954;SDS011;45815;52.334;5.024;2024-01-07T02:03:00;13.98;;;7.93;;
58954;SDS011;45815;52.334;5.024;2024-01-07T02:05:26;12.07;;;8.02;;
58954;SDS011;45815;52.334;5.024;2024-01-07T02:07:52;11.13;;;6.85;;
58954;SDS011;45815;52.334;5.024;2024-01-07T02:10:20;12.05;;;7.85;;
58954;SDS011;45815;52.334;5.024;2024-01-07T02:12:45;11.32;;;7.25;;
58954;SDS011;45815;52.334;5.024;2024-01-07T02:15:10;11.70;;;7.03;;
58954;SDS011;45815;52.334;5.024;2024-01-07T02:17:36;14.10;;;8.23;;
58954;SDS011;45815;52.334;5.024;2024-01-07T02:20:01;11.73;;;7.00;;
58954;SDS011;45815;52.334;5.024;2024-01-07T02:22:27;12.77;;;7.57;;
58954;SDS011;45815;52.334;5.024;2024-01-07T02:24:52;12.07;;;7.18;;
58954;SDS011;45815;52.334;5.024;2024-01-07T02:27:18;13.38;;;7.03;;
58954;SDS011;45815;52.334;5.024;2024-01-07T02:29:43;11.05;;;7.43;;
58954;SDS011;45815;52.334;5.024;2024-01-07T02:32:08;12.77;;;7.57;;
58954;SDS011;45815;52.334;5.024;2024-01-07T02:34:34;12.30;;;7.13;;
58954;SDS011;45815;52.334;5.024;2024-01-07T02:36:59;13.95;;;8.00;;
58954;SDS011;45815;52.334;5.024;2024-01-07T02:39:25;13.75;;;8.02;;
58954;SDS011;45815;52.334;5.024;2024-01-07T02:41:50;14.43;;;8.07;;
58954;SDS011;45815;52.334;5.024;2024-01-07T02:44:15;13.60;;;8.25;;
58954;SDS011;45815;52.334;5.024;2024-01-07T02:46:41;15.52;;;8.60;;
58954;SDS011;45815;52.334;5.024;2024-01-07T02:49:06;11.48;;;7.63;;
58954;SDS011;45815;52.334;5.024;2024-01-07T02:51:32;13.15;;;8.30;;
58954;SDS011;45815;52.334;5.024;2024-01-07T02:53:57;13.60;;;8.02;;
58954;SDS011;45815;52.334;5.024;2024-01-07T02:56:23;14.98;;;8.73;;
58954;SDS011;45815;52.334;5.024;2024-01-07T02:58:48;12.73;;;7.13;;
58954;SDS011;45815;52.334;5.024;2024-01-07T03:01:14;13.20;;;8.25;;
58954;SDS011;45815;52.334;5.024;2024-01-07T03:03:39;16.15;;;8.35;;
58954;SDS011;45815;52.334;5.024;2024-01-07T03:06:04;14.68;;;8.13;;
58954;SDS011;45815;52.334;5.024;2024-01-07T03:08:30;15.40;;;9.07;;
58954;SDS011;45815;52.334;5.024;2024-01-07T03:10:56;14.05;;;8.38;;
58954;SDS011;45815;52.334;5.024;2024-01-07T03:13:22;14.43;;;8.55;;
58954;SDS011;45815;52.334;5.024;2024-01-07T03:15:47;13.65;;;8.25;;
58954;SDS011;45815;52.334;5.024;2024-01-07T03:18:12;12.63;;;7.72;;
58954;SDS011;45815;52.334;5.024;2024-01-07T03:20:38;15.35;;;7.68;;
58954;SDS011;45815;52.334;5.024;2024-01-07T03:23:03;13.02;;;7.85;;
58954;SDS011;45815;52.334;5.024;2024-01-07T03:25:29;11.90;;;6.82;;
58954;SDS011;45815;52.334;5.024;2024-01-07T03:27:54;11.02;;;6.95;;
58954;SDS011;45815;52.334;5.024;2024-01-07T03:30:19;12.13;;;7.32;;
58954;SDS011;45815;52.334;5.024;2024-01-07T03:32:45;10.98;;;6.75;;
58954;SDS011;45815;52.334;5.024;2024-01-07T03:35:10;11.85;;;6.88;;
58954;SDS011;45815;52.334;5.024;2024-01-07T03:37:36;11.40;;;7.18;;
58954;SDS011;45815;52.334;5.024;2024-01-07T03:40:01;12.90;;;7.55;;
58954;SDS011;45815;52.334;5.024;2024-01-07T03:42:27;11.50;;;6.68;;
58954;SDS011;45815;52.334;5.024;2024-01-07T03:44:52;12.07;;;7.18;;
58954;SDS011;45815;52.334;5.024;2024-01-07T03:47:18;11.05;;;7.07;;
58954;SDS011;45815;52.334;5.024;2024-01-07T03:49:43;14.18;;;8.10;;
58954;SDS011;45815;52.334;5.024;2024-01-07T03:52:08;13.43;;;8.52;;
58954;SDS011;45815;52.334;5.024;2024-01-07T03:54:34;12.52;;;7.10;;
58954;SDS011;45815;52.334;5.024;2024-01-07T03:56:59;12.75;;;7.45;;
58954;SDS011;45815;52.334;5.024;2024-01-07T03:59:25;12.52;;;7.82;;
58954;SDS011;45815;52.334;5.024;2024-01-07T04:01:55;11.38;;;7.40;;
58954;SDS011;45815;52.334;5.024;2024-01-07T04:04:22;10.07;;;6.63;;
58954;SDS011;45815;52.334;5.024;2024-01-07T04:06:47;12.68;;;7.22;;
58954;SDS011;45815;52.334;5.024;2024-01-07T04:09:12;13.48;;;6.50;;
58954;SDS011;45815;52.334;5.024;2024-01-07T04:11:41;12.55;;;7.60;;
58954;SDS011;45815;52.334;5.024;2024-01-07T04:14:07;10.95;;;6.68;;
58954;SDS011;45815;52.334;5.024;2024-01-07T04:16:33;12.70;;;6.88;;
58954;SDS011;45815;52.334;5.024;2024-01-07T04:18:59;11.70;;;6.88;;
58954;SDS011;45815;52.334;5.024;2024-01-07T04:21:24;12.73;;;7.30;;
58954;SDS011;45815;52.334;5.024;2024-01-07T04:23:50;11.23;;;7.30;;
58954;SDS011;45815;52.334;5.024;2024-01-07T04:26:15;13.90;;;8.18;;
58954;SDS011;45815;52.334;5.024;2024-01-07T04:28:41;13.10;;;7.13;;
58954;SDS011;45815;52.334;5.024;2024-01-07T04:31:07;13.13;;;7.18;;
58954;SDS011;45815;52.334;5.024;2024-01-07T04:33:32;12.48;;;7.68;;
58954;SDS011;45815;52.334;5.024;2024-01-07T04:35:58;12.50;;;7.68;;
58954;SDS011;45815;52.334;5.024;2024-01-07T04:38:24;13.13;;;8.13;;
58954;SDS011;45815;52.334;5.024;2024-01-07T04:40:50;14.07;;;8.32;;
58954;SDS011;45815;52.334;5.024;2024-01-07T04:43:16;14.70;;;8.85;;
58954;SDS011;45815;52.334;5.024;2024-01-07T04:45:42;15.60;;;9.60;;
58954;SDS011;45815;52.334;5.024;2024-01-07T04:48:08;17.25;;;9.90;;
58954;SDS011;45815;52.334;5.024;2024-01-07T04:50:33;17.15;;;10.13;;
58954;SDS011;45815;52.334;5.024;2024-01-07T04:52:59;15.63;;;9.80;;
58954;SDS011;45815;52.334;5.024;2024-01-07T04:55:24;15.40;;;9.40;;
58954;SDS011;45815;52.334;5.024;2024-01-07T04:57:49;17.73;;;9.85;;
58954;SDS011;45815;52.334;5.024;2024-01-07T05:00:15;15.77;;;9.68;;
58954;SDS011;45815;52.334;5.024;2024-01-07T05:02:41;16.83;;;9.50;;
58954;SDS011;45815;52.334;5.024;2024-01-07T05:05:07;13.95;;;9.20;;
58954;SDS011;45815;52.334;5.024;2024-01-07T05:07:33;16.23;;;9.40;;
58954;SDS011;45815;52.334;5.024;2024-01-07T05:09:59;14.38;;;9.07;;
58954;SDS011;45815;52.334;5.024;2024-01-07T05:12:24;15.18;;;8.35;;
58954;SDS011;45815;52.334;5.024;2024-01-07T05:14:50;15.57;;;9.70;;
58954;SDS011;45815;52.334;5.024;2024-01-07T05:17:16;14.93;;;9.95;;
58954;SDS011;45815;52.334;5.024;2024-01-07T05:19:42;16.00;;;9.38;;
58954;SDS011;45815;52.334;5.024;2024-01-07T05:22:07;14.30;;;8.82;;
58954;SDS011;45815;52.334;5.024;2024-01-07T05:24:32;15.30;;;8.73;;
58954;SDS011;45815;52.334;5.024;2024-01-07T05:26:58;14.85;;;8.05;;
58954;SDS011;45815;52.334;5.024;2024-01-07T05:29:23;14.40;;;8.40;;
58954;SDS011;45815;52.334;5.024;2024-01-07T05:31:49;14.57;;;9.27;;
58954;SDS011;45815;52.334;5.024;2024-01-07T05:34:14;12.85;;;8.25;;
58954;SDS011;45815;52.334;5.024;2024-01-07T05:36:39;13.20;;;8.38;;
58954;SDS011;45815;52.334;5.024;2024-01-07T05:39:05;12.48;;;8.07;;
58954;SDS011;45815;52.334;5.024;2024-01-07T05:41:32;15.75;;;8.20;;
58954;SDS011;45815;52.334;5.024;2024-01-07T05:43:58;13.38;;;8.40;;
58954;SDS011;45815;52.334;5.024;2024-01-07T05:46:23;14.23;;;8.68;;
58954;SDS011;45815;52.334;5.024;2024-01-07T05:48:49;16.10;;;8.77;;
58954;SDS011;45815;52.334;5.024;2024-01-07T05:51:14;14.82;;;8.88;;
58954;SDS011;45815;52.334;5.024;2024-01-07T05:53:41;13.05;;;8.40;;
58954;SDS011;45815;52.334;5.024;2024-01-07T05:56:08;15.55;;;8.07;;
58954;SDS011;45815;52.334;5.024;2024-01-07T05:58:33;14.35;;;7.85;;
58954;SDS011;45815;52.334;5.024;2024-01-07T06:00:59;15.77;;;8.80;;
58954;SDS011;45815;52.334;5.024;2024-01-07T06:03:25;16.02;;;8.45;;
58954;SDS011;45815;52.334;5.024;2024-01-07T06:05:51;13.55;;;7.82;;
58954;SDS011;45815;52.334;5.024;2024-01-07T06:08:16;13.35;;;8.23;;
58954;SDS011;45815;52.334;5.024;2024-01-07T06:10:41;14.30;;;8.23;;
58954;SDS011;45815;52.334;5.024;2024-01-07T06:13:07;12.80;;;7.40;;
58954;SDS011;45815;52.334;5.024;2024-01-07T06:15:32;14.13;;;7.72;;
58954;SDS011;45815;52.334;5.024;2024-01-07T06:17:58;14.40;;;7.50;;
58954;SDS011;45815;52.334;5.024;2024-01-07T06:20:23;13.10;;;7.47;;
58954;SDS011;45815;52.334;5.024;2024-01-07T06:22:49;12.88;;;7.32;;
58954;SDS011;45815;52.334;5.024;2024-01-07T06:25:15;12.88;;;7.43;;
58954;SDS011;45815;52.334;5.024;2024-01-07T06:27:41;15.50;;;7.00;;
58954;SDS011;45815;52.334;5.024;2024-01-07T06:30:07;11.40;;;6.85;;
58954;SDS011;45815;52.334;5.024;2024-01-07T06:32:33;11.27;;;7.47;;
58954;SDS011;45815;52.334;5.024;2024-01-07T06:34:59;11.30;;;6.78;;
58954;SDS011;45815;52.334;5.024;2024-01-07T06:37:24;11.90;;;6.63;;
58954;SDS011;45815;52.334;5.024;2024-01-07T06:39:50;11.10;;;6.80;;
58954;SDS011;45815;52.334;5.024;2024-01-07T06:42:16;12.90;;;7.22;;
58954;SDS011;45815;52.334;5.024;2024-01-07T06:44:41;11.30;;;6.35;;
58954;SDS011;45815;52.334;5.024;2024-01-07T06:47:07;11.30;;;6.38;;
58954;SDS011;45815;52.334;5.024;2024-01-07T06:49:32;9.65;;;6.60;;
58954;SDS011;45815;52.334;5.024;2024-01-07T06:51:58;11.65;;;7.15;;
58954;SDS011;45815;52.334;5.024;2024-01-07T06:54:24;10.50;;;6.50;;
58954;SDS011;45815;52.334;5.024;2024-01-07T06:56:50;13.38;;;6.45;;
58954;SDS011;45815;52.334;5.024;2024-01-07T06:59:15;10.27;;;6.47;;
58954;SDS011;45815;52.334;5.024;2024-01-07T07:01:41;13.15;;;6.60;;
58954;SDS011;45815;52.334;5.024;2024-01-07T07:04:06;13.98;;;6.95;;
58954;SDS011;45815;52.334;5.024;2024-01-07T07:06:32;10.35;;;5.80;;
58954;SDS011;45815;52.334;5.024;2024-01-07T07:08:57;11.63;;;6.30;;
58954;SDS011;45815;52.334;5.024;2024-01-07T07:11:22;11.40;;;6.70;;
58954;SDS011;45815;52.334;5.024;2024-01-07T07:13:48;11.20;;;6.40;;
58954;SDS011;45815;52.334;5.024;2024-01-07T07:16:13;10.25;;;6.00;;
58954;SDS011;45815;52.334;5.024;2024-01-07T07:18:39;11.15;;;6.00;;
58954;SDS011;45815;52.334;5.024;2024-01-07T07:21:04;10.43;;;5.72;;
58954;SDS011;45815;52.334;5.024;2024-01-07T07:23:30;9.48;;;5.82;;
58954;SDS011;45815;52.334;5.024;2024-01-07T07:25:55;9.13;;;5.35;;
58954;SDS011;45815;52.334;5.024;2024-01-07T07:28:21;9.35;;;5.80;;
58954;SDS011;45815;52.334;5.024;2024-01-07T07:30:46;12.05;;;6.50;;
58954;SDS011;45815;52.334;5.024;2024-01-07T07:33:12;12.57;;;6.40;;
58954;SDS011;45815;52.334;5.024;2024-01-07T07:35:39;10.32;;;5.78;;
58954;SDS011;45815;52.334;5.024;2024-01-07T07:38:05;11.18;;;6.63;;
58954;SDS011;45815;52.334;5.024;2024-01-07T07:40:31;11.10;;;6.10;;
58954;SDS011;45815;52.334;5.024;2024-01-07T07:42:57;10.30;;;5.93;;
58954;SDS011;45815;52.334;5.024;2024-01-07T07:45:22;11.07;;;6.75;;
58954;SDS011;45815;52.334;5.024;2024-01-07T07:47:48;10.25;;;6.25;;
58954;SDS011;45815;52.334;5.024;2024-01-07T07:50:13;9.40;;;5.53;;
58954;SDS011;45815;52.334;5.024;2024-01-07T07:52:39;10.88;;;6.05;;
58954;SDS011;45815;52.334;5.024;2024-01-07T07:55:07;11.00;;;5.10;;
58954;SDS011;45815;52.334;5.024;2024-01-07T07:57:32;9.35;;;5.25;;
58954;SDS011;45815;52.334;5.024;2024-01-07T07:59:58;10.27;;;5.90;;
58954;SDS011;45815;52.334;5.024;2024-01-07T08:02:24;9.13;;;4.88;;
58954;SDS011;45815;52.334;5.024;2024-01-07T08:04:49;9.50;;;5.00;;
58954;SDS011;45815;52.334;5.024;2024-01-07T08:07:14;8.95;;;5.05;;
58954;SDS011;45815;52.334;5.024;2024-01-07T08:09:40;11.88;;;5.53;;
58954;SDS011;45815;52.334;5.024;2024-01-07T08:12:05;10.38;;;5.28;;
58954;SDS011;45815;52.334;5.024;2024-01-07T08:14:31;10.80;;;5.10;;
58954;SDS011;45815;52.334;5.024;2024-01-07T08:16:57;11.38;;;5.93;;
58954;SDS011;45815;52.334;5.024;2024-01-07T08:19:23;9.50;;;5.72;;
58954;SDS011;45815;52.334;5.024;2024-01-07T08:21:48;10.73;;;5.15;;
58954;SDS011;45815;52.334;5.024;2024-01-07T08:24:13;9.55;;;5.20;;
58954;SDS011;45815;52.334;5.024;2024-01-07T08:26:39;10.93;;;5.45;;
58954;SDS011;45815;52.334;5.024;2024-01-07T08:29:04;11.65;;;5.50;;
58954;SDS011;45815;52.334;5.024;2024-01-07T08:31:30;9.18;;;4.90;;
58954;SDS011;45815;52.334;5.024;2024-01-07T08:33:56;9.10;;;4.90;;
58954;SDS011;45815;52.334;5.024;2024-01-07T08:36:21;10.88;;;5.18;;
58954;SDS011;45815;52.334;5.024;2024-01-07T08:38:47;9.15;;;5.00;;
58954;SDS011;45815;52.334;5.024;2024-01-07T08:41:15;9.23;;;5.00;;
58954;SDS011;45815;52.334;5.024;2024-01-07T08:43:41;9.00;;;4.32;;
58954;SDS011;45815;52.334;5.024;2024-01-07T08:46:06;7.40;;;4.07;;
58954;SDS011;45815;52.334;5.024;2024-01-07T08:48:31;10.70;;;4.30;;
58954;SDS011;45815;52.334;5.024;2024-01-07T08:50:57;9.57;;;4.43;;
58954;SDS011;45815;52.334;5.024;2024-01-07T08:53:22;9.57;;;4.47;;
58954;SDS011;45815;52.334;5.024;2024-01-07T08:55:48;10.90;;;4.78;;
58954;SDS011;45815;52.334;5.024;2024-01-07T08:58:13;8.23;;;3.85;;
58954;SDS011;45815;52.334;5.024;2024-01-07T09:00:42;7.97;;;4.10;;
58954;SDS011;45815;52.334;5.024;2024-01-07T09:03:08;7.30;;;3.78;;
58954;SDS011;45815;52.334;5.024;2024-01-07T09:05:34;7.05;;;4.18;;
58954;SDS011;45815;52.334;5.024;2024-01-07T09:08:00;8.20;;;4.38;;
58954;SDS011;45815;52.334;5.024;2024-01-07T09:10:26;8.68;;;4.35;;
58954;SDS011;45815;52.334;5.024;2024-01-07T09:12:52;7.65;;;4.00;;
58954;SDS011;45815;52.334;5.024;2024-01-07T09:15:18;9.05;;;4.50;;
58954;SDS011;45815;52.334;5.024;2024-01-07T09:17:45;10.43;;;4.28;;
58954;SDS011;45815;52.334;5.024;2024-01-07T09:20:10;8.73;;;4.20;;
58954;SDS011;45815;52.334;5.024;2024-01-07T09:22:36;9.10;;;4.10;;
58954;SDS011;45815;52.334;5.024;2024-01-07T09:25:02;9.93;;;4.28;;
58954;SDS011;45815;52.334;5.024;2024-01-07T09:27:32;8.10;;;3.72;;
58954;SDS011;45815;52.334;5.024;2024-01-07T09:29:58;8.07;;;4.05;;
58954;SDS011;45815;52.334;5.024;2024-01-07T09:32:23;6.97;;;3.30;;
58954;SDS011;45815;52.334;5.024;2024-01-07T09:34:49;7.25;;;3.42;;
58954;SDS011;45815;52.334;5.024;2024-01-07T09:37:14;6.60;;;3.00;;
58954;SDS011;45815;52.334;5.024;2024-01-07T09:39:41;6.80;;;3.45;;
58954;SDS011;45815;52.334;5.024;2024-01-07T09:42:14;7.47;;;3.22;;
58954;SDS011;45815;52.334;5.024;2024-01-07T09:44:41;6.75;;;3.00;;
58954;SDS011;45815;52.334;5.024;2024-01-07T09:47:11;6.97;;;3.40;;
58954;SDS011;45815;52.334;5.024;2024-01-07T09:49:38;8.02;;;2.92;;
58954;SDS011;45815;52.334;5.024;2024-01-07T09:52:04;5.60;;;2.47;;
58954;SDS011;45815;52.334;5.024;2024-01-07T09:54:31;6.88;;;2.85;;
58954;SDS011;45815;52.334;5.024;2024-01-07T09:57:01;5.72;;;2.42;;
58954;SDS011;45815;52.334;5.024;2024-01-07T09:59:28;4.85;;;2.03;;
58954;SDS011;45815;52.334;5.024;2024-01-07T10:01:54;5.90;;;2.58;;
58954;SDS011;45815;52.334;5.024;2024-01-07T10:04:20;5.55;;;2.75;;
58954;SDS011;45815;52.334;5.024;2024-01-07T10:06:46;5.95;;;2.63;;
58954;SDS011;45815;52.334;5.024;2024-01-07T10:09:11;5.40;;;2.22;;
58954;SDS011;45815;52.334;5.024;2024-01-07T10:11:38;5.85;;;2.25;;
58954;SDS011;45815;52.334;5.024;2024-01-07T10:14:04;6.65;;;2.80;;
58954;SDS011;45815;52.334;5.024;2024-01-07T10:16:29;8.93;;;2.47;;
58954;SDS011;45815;52.334;5.024;2024-01-07T10:18:55;5.53;;;2.53;;
58954;SDS011;45815;52.334;5.024;2024-01-07T10:21:20;6.43;;;2.40;;
58954;SDS011;45815;52.334;5.024;2024-01-07T10:23:45;5.88;;;2.58;;
58954;SDS011;45815;52.334;5.024;2024-01-07T10:26:11;5.88;;;2.75;;
58954;SDS011;45815;52.334;5.024;2024-01-07T10:28:36;4.88;;;1.92;;
58954;SDS011;45815;52.334;5.024;2024-01-07T10:31:03;6.35;;;2.70;;
58954;SDS011;45815;52.334;5.024;2024-01-07T10:33:31;7.10;;;2.42;;
58954;SDS011;45815;52.334;5.024;2024-01-07T10:36:02;8.60;;;2.95;;
58954;SDS011;45815;52.334;5.024;2024-01-07T10:38:34;10.18;;;2.53;;
58954;SDS011;45815;52.334;5.024;2024-01-07T10:41:00;6.45;;;2.50;;
58954;SDS011;45815;52.334;5.024;2024-01-07T10:43:29;5.13;;;2.45;;
58954;SDS011;45815;52.334;5.024;2024-01-07T10:45:55;6.18;;;2.30;;
58954;SDS011;45815;52.334;5.024;2024-01-07T10:48:21;6.28;;;2.35;;
58954;SDS011;45815;52.334;5.024;2024-01-07T10:50:49;3.97;;;1.83;;
58954;SDS011;45815;52.334;5.024;2024-01-07T10:53:20;4.72;;;1.90;;
58954;SDS011;45815;52.334;5.024;2024-01-07T10:56:00;6.00;;;2.40;;
58954;SDS011;45815;52.334;5.024;2024-01-07T10:58:31;5.13;;;2.25;;
58954;SDS011;45815;52.334;5.024;2024-01-07T11:00:59;6.85;;;2.50;;
58954;SDS011;45815;52.334;5.024;2024-01-07T11:03:40;7.55;;;2.50;;
58954;SDS011;45815;52.334;5.024;2024-01-07T11:06:21;4.57;;;2.10;;
58954;SDS011;45815;52.334;5.024;2024-01-07T11:09:02;6.55;;;2.40;;
58954;SDS011;45815;52.334;5.024;2024-01-07T11:11:40;6.40;;;2.60;;
58954;SDS011;45815;52.334;5.024;2024-01-07T11:17:04;4.47;;;1.83;;
58954;SDS011;45815;52.334;5.024;2024-01-07T11:19:34;4.80;;;2.13;;
58954;SDS011;45815;52.334;5.024;2024-01-07T11:24:53;4.90;;;1.95;;
58954;SDS011;45815;52.334;5.024;2024-01-07T11:27:21;4.18;;;1.80;;
58954;SDS011;45815;52.334;5.024;2024-01-07T11:29:57;4.72;;;1.88;;
58954;SDS011;45815;52.334;5.024;2024-01-07T11:32:29;6.43;;;2.17;;
58954;SDS011;45815;52.334;5.024;2024-01-07T11:34:55;4.97;;;1.80;;
58954;SDS011;45815;52.334;5.024;2024-01-07T11:37:22;5.40;;;1.83;;
58954;SDS011;45815;52.334;5.024;2024-01-07T11:39:48;4.32;;;1.95;;
58954;SDS011;45815;52.334;5.024;2024-01-07T11:42:15;5.72;;;1.85;;
58954;SDS011;45815;52.334;5.024;2024-01-07T11:44:44;4.78;;;1.55;;
58954;SDS011;45815;52.334;5.024;2024-01-07T11:47:14;5.28;;;1.67;;
58954;SDS011;45815;52.334;5.024;2024-01-07T11:49:43;6.72;;;1.83;;
58954;SDS011;45815;52.334;5.024;2024-01-07T11:52:09;5.38;;;1.67;;
58954;SDS011;45815;52.334;5.024;2024-01-07T11:54:36;5.50;;;2.00;;
58954;SDS011;45815;52.334;5.024;2024-01-07T11:57:03;5.57;;;1.90;;
58954;SDS011;45815;52.334;5.024;2024-01-07T11:59:29;5.55;;;2.03;;
58954;SDS011;45815;52.334;5.024;2024-01-07T12:01:55;3.67;;;1.70;;
58954;SDS011;45815;52.334;5.024;2024-01-07T12:04:20;3.63;;;1.70;;
58954;SDS011;45815;52.334;5.024;2024-01-07T12:06:46;4.97;;;2.00;;
58954;SDS011;45815;52.334;5.024;2024-01-07T12:09:12;4.22;;;1.65;;
58954;SDS011;45815;52.334;5.024;2024-01-07T12:11:39;4.65;;;1.77;;
58954;SDS011;45815;52.334;5.024;2024-01-07T12:14:06;5.32;;;1.92;;
58954;SDS011;45815;52.334;5.024;2024-01-07T12:16:32;4.15;;;1.63;;
58954;SDS011;45815;52.334;5.024;2024-01-07T12:18:58;4.15;;;1.58;;
58954;SDS011;45815;52.334;5.024;2024-01-07T12:21:24;4.97;;;1.77;;
58954;SDS011;45815;52.334;5.024;2024-01-07T12:23:51;4.88;;;1.70;;
58954;SDS011;45815;52.334;5.024;2024-01-07T12:26:17;4.60;;;1.63;;
58954;SDS011;45815;52.334;5.024;2024-01-07T12:28:44;3.53;;;1.67;;
58954;SDS011;45815;52.334;5.024;2024-01-07T12:31:10;3.95;;;1.60;;
58954;SDS011;45815;52.334;5.024;2024-01-07T12:33:38;4.35;;;1.63;;
58954;SDS011;45815;52.334;5.024;2024-01-07T12:36:06;4.25;;;1.70;;
58954;SDS011;45815;52.334;5.024;2024-01-07T12:38:32;4.45;;;1.52;;
58954;SDS011;45815;52.334;5.024;2024-01-07T12:40:57;3.58;;;1.42;;
58954;SDS011;45815;52.334;5.024;2024-01-07T12:43:23;4.45;;;1.58;;
58954;SDS011;45815;52.334;5.024;2024-01-07T12:45:49;4.35;;;1.70;;
58954;SDS011;45815;52.334;5.024;2024-01-07T12:48:15;3.63;;;1.60;;
58954;SDS011;45815;52.334;5.024;2024-01-07T12:50:40;3.83;;;1.50;;
58954;SDS011;45815;52.334;5.024;2024-01-07T12:53:06;2.75;;;1.35;;
58954;SDS011;45815;52.334;5.024;2024-01-07T12:55:31;4.20;;;1.50;;
58954;SDS011;45815;52.334;5.024;2024-01-07T12:57:57;4.00;;;1.70;;
58954;SDS011;45815;52.334;5.024;2024-01-07T13:00:23;4.30;;;1.52;;
58954;SDS011;45815;52.334;5.024;2024-01-07T13:02:50;4.28;;;1.60;;
58954;SDS011;45815;52.334;5.024;2024-01-07T13:05:15;3.83;;;1.33;;
58954;SDS011;45815;52.334;5.024;2024-01-07T13:07:41;6.50;;;1.92;;
58954;SDS011;45815;52.334;5.024;2024-01-07T13:10:06;4.40;;;1.70;;
58954;SDS011;45815;52.334;5.024;2024-01-07T13:12:32;5.63;;;1.83;;
58954;SDS011;45815;52.334;5.024;2024-01-07T13:14:57;3.17;;;1.27;;
58954;SDS011;45815;52.334;5.024;2024-01-07T13:17:23;3.63;;;1.52;;
58954;SDS011;45815;52.334;5.024;2024-01-07T13:19:48;3.47;;;1.60;;
58954;SDS011;45815;52.334;5.024;2024-01-07T13:22:13;3.75;;;1.73;;
58954;SDS011;45815;52.334;5.024;2024-01-07T13:24:39;4.75;;;1.42;;
58954;SDS011;45815;52.334;5.024;2024-01-07T13:27:06;3.60;;;1.50;;
58954;SDS011;45815;52.334;5.024;2024-01-07T13:29:33;3.53;;;1.30;;
58954;SDS011;45815;52.334;5.024;2024-01-07T13:31:59;5.13;;;1.50;;
58954;SDS011;45815;52.334;5.024;2024-01-07T13:34:24;4.93;;;1.30;;
58954;SDS011;45815;52.334;5.024;2024-01-07T13:36:50;4.60;;;1.50;;
58954;SDS011;45815;52.334;5.024;2024-01-07T13:39:16;3.47;;;1.40;;
58954;SDS011;45815;52.334;5.024;2024-01-07T13:41:42;3.80;;;1.50;;
58954;SDS011;45815;52.334;5.024;2024-01-07T13:44:09;5.00;;;1.40;;
58954;SDS011;45815;52.334;5.024;2024-01-07T13:46:43;3.95;;;1.20;;
58954;SDS011;45815;52.334;5.024;2024-01-07T13:49:10;5.85;;;1.30;;
58954;SDS011;45815;52.334;5.024;2024-01-07T13:51:35;4.57;;;1.30;;
58954;SDS011;45815;52.334;5.024;2024-01-07T13:54:02;4.18;;;1.50;;
58954;SDS011;45815;52.334;5.024;2024-01-07T13:56:28;3.13;;;1.27;;
58954;SDS011;45815;52.334;5.024;2024-01-07T13:58:54;4.78;;;1.40;;
58954;SDS011;45815;52.334;5.024;2024-01-07T14:01:19;3.50;;;1.38;;
58954;SDS011;45815;52.334;5.024;2024-01-07T14:03:45;4.13;;;1.58;;
58954;SDS011;45815;52.334;5.024;2024-01-07T14:06:10;3.03;;;1.42;;
58954;SDS011;45815;52.334;5.024;2024-01-07T14:08:36;4.68;;;1.52;;
58954;SDS011;45815;52.334;5.024;2024-01-07T14:11:01;3.38;;;1.27;;
58954;SDS011;45815;52.334;5.024;2024-01-07T14:13:28;4.32;;;1.48;;
58954;SDS011;45815;52.334;5.024;2024-01-07T14:15:53;4.35;;;1.45;;
58954;SDS011;45815;52.334;5.024;2024-01-07T14:18:20;3.85;;;1.58;;
58954;SDS011;45815;52.334;5.024;2024-01-07T14:20:47;5.85;;;1.55;;
58954;SDS011;45815;52.334;5.024;2024-01-07T14:23:13;4.45;;;1.77;;
58954;SDS011;45815;52.334;5.024;2024-01-07T14:25:38;4.72;;;1.60;;
58954;SDS011;45815;52.334;5.024;2024-01-07T14:28:05;3.65;;;1.52;;
58954;SDS011;45815;52.334;5.024;2024-01-07T14:30:31;3.72;;;1.60;;
58954;SDS011;45815;52.334;5.024;2024-01-07T14:32:56;3.70;;;1.50;;
58954;SDS011;45815;52.334;5.024;2024-01-07T14:35:22;5.50;;;1.70;;
58954;SDS011;45815;52.334;5.024;2024-01-07T14:37:49;5.75;;;1.98;;
58954;SDS011;45815;52.334;5.024;2024-01-07T14:40:15;2.67;;;1.30;;